sensor_id;sensor_type;location;lat;lon;timestamp;P1;durP1;ratioP1;P2;durP2;ratioP2
66860;SDS011;53770;42.334;23.550;2022-08-19T00:01:24;7.93;;;5.18;;
66860;SDS011;53770;42.334;23.550;2022-08-19T00:03:52;8.30;;;5.10;;
66860;SDS011;53770;42.334;23.550;2022-08-19T00:06:19;9.10;;;5.30;;
66860;SDS011;53770;42.334;23.550;2022-08-19T00:08:47;8.48;;;5.18;;
66860;SDS011;53770;42.334;23.550;2022-08-19T00:11:16;8.07;;;5.50;;
66860;SDS011;53770;42.334;23.550;2022-08-19T00:13:43;8.50;;;5.03;;
66860;SDS011;53770;42.334;23.550;2022-08-19T00:16:10;7.85;;;5.07;;
66860;SDS011;53770;42.334;23.550;2022-08-19T00:18:37;7.32;;;4.97;;
66860;SDS011;53770;42.334;23.550;2022-08-19T00:21:04;8.63;;;5.50;;
66860;SDS011;53770;42.334;23.550;2022-08-19T00:23:32;14.27;;;5.30;;
66860;SDS011;53770;42.334;23.550;2022-08-19T00:26:01;9.38;;;4.93;;
66860;SDS011;53770;42.334;23.550;2022-08-19T00:28:28;9.98;;;5.40;;
66860;SDS011;53770;42.334;23.550;2022-08-19T00:30:55;7.93;;;5.28;;
66860;SDS011;53770;42.334;23.550;2022-08-19T00:33:22;7.57;;;5.40;;
66860;SDS011;53770;42.334;23.550;2022-08-19T00:35:48;7.20;;;4.80;;
66860;SDS011;53770;42.334;23.550;2022-08-19T00:38:15;9.57;;;5.05;;
66860;SDS011;53770;42.334;23.550;2022-08-19T00:40:42;7.57;;;5.32;;
66860;SDS011;53770;42.334;23.550;2022-08-19T00:43:12;9.32;;;5.07;;
66860;SDS011;53770;42.334;23.550;2022-08-19T00:45:44;7.18;;;5.07;;
66860;SDS011;53770;42.334;23.550;2022-08-19T00:48:15;9.37;;;5.27;;
66860;SDS011;53770;42.334;23.550;2022-08-19T00:50:42;7.85;;;5.30;;
66860;SDS011;53770;42.334;23.550;2022-08-19T00:53:11;6.88;;;5.03;;
66860;SDS011;53770;42.334;23.550;2022-08-19T00:55:42;6.57;;;4.85;;
66860;SDS011;53770;42.334;23.550;2022-08-19T00:58:14;8.32;;;5.20;;
66860;SDS011;53770;42.334;23.550;2022-08-19T01:00:44;7.93;;;5.63;;
66860;SDS011;53770;42.334;23.550;2022-08-19T01:03:13;10.13;;;5.18;;
66860;SDS011;53770;42.334;23.550;2022-08-19T01:05:42;7.45;;;5.07;;
66860;SDS011;53770;42.334;23.550;2022-08-19T01:08:10;8.32;;;5.18;;
66860;SDS011;53770;42.334;23.550;2022-08-19T01:10:40;9.07;;;5.35;;
66860;SDS011;53770;42.334;23.550;2022-08-19T01:13:09;7.03;;;4.97;;
66860;SDS011;53770;42.334;23.550;2022-08-19T01:15:40;8.98;;;5.22;;
66860;SDS011;53770;42.334;23.550;2022-08-19T01:18:10;8.48;;;5.20;;
66860;SDS011;53770;42.334;23.550;2022-08-19T01:20:39;8.05;;;4.90;;
66860;SDS011;53770;42.334;23.550;2022-08-19T01:23:08;6.82;;;5.25;;
66860;SDS011;53770;42.334;23.550;2022-08-19T01:25:36;8.20;;;5.10;;
66860;SDS011;53770;42.334;23.550;2022-08-19T01:28:13;8.52;;;5.50;;
66860;SDS011;53770;42.334;23.550;2022-08-19T01:30:43;6.63;;;4.75;;
66860;SDS011;53770;42.334;23.550;2022-08-19T01:33:11;7.55;;;5.35;;
66860;SDS011;53770;42.334;23.550;2022-08-19T01:35:38;7.85;;;5.32;;
66860;SDS011;53770;42.334;23.550;2022-08-19T01:38:06;8.63;;;5.10;;
66860;SDS011;53770;42.334;23.550;2022-08-19T01:40:45;9.02;;;5.68;;
66860;SDS011;53770;42.334;23.550;2022-08-19T01:43:11;8.05;;;5.22;;
66860;SDS011;53770;42.334;23.550;2022-08-19T01:45:38;8.85;;;5.38;;
66860;SDS011;53770;42.334;23.550;2022-08-19T01:48:06;7.10;;;5.20;;
66860;SDS011;53770;42.334;23.550;2022-08-19T01:50:34;8.90;;;5.13;;
66860;SDS011;53770;42.334;23.550;2022-08-19T01:53:02;7.68;;;5.30;;
66860;SDS011;53770;42.334;23.550;2022-08-19T01:55:32;7.55;;;5.30;;
66860;SDS011;53770;42.334;23.550;2022-08-19T01:58:01;11.88;;;5.30;;
66860;SDS011;53770;42.334;23.550;2022-08-19T02:00:31;7.80;;;5.10;;
66860;SDS011;53770;42.334;23.550;2022-08-19T02:02:58;7.17;;;5.07;;
66860;SDS011;53770;42.334;23.550;2022-08-19T02:05:26;8.18;;;4.90;;
66860;SDS011;53770;42.334;23.550;2022-08-19T02:07:54;6.45;;;4.60;;
66860;SDS011;53770;42.334;23.550;2022-08-19T02:10:21;7.00;;;4.93;;
66860;SDS011;53770;42.334;23.550;2022-08-19T02:12:50;9.13;;;4.82;;
66860;SDS011;53770;42.334;23.550;2022-08-19T02:15:17;8.53;;;5.30;;
66860;SDS011;53770;42.334;23.550;2022-08-19T02:17:45;6.93;;;4.85;;
66860;SDS011;53770;42.334;23.550;2022-08-19T02:20:12;6.97;;;4.88;;
66860;SDS011;53770;42.334;23.550;2022-08-19T02:22:39;10.77;;;4.93;;
66860;SDS011;53770;42.334;23.550;2022-08-19T02:25:08;8.60;;;5.10;;
66860;SDS011;53770;42.334;23.550;2022-08-19T02:27:35;7.23;;;5.40;;
66860;SDS011;53770;42.334;23.550;2022-08-19T02:30:04;8.18;;;5.25;;
66860;SDS011;53770;42.334;23.550;2022-08-19T02:32:31;7.15;;;4.97;;
66860;SDS011;53770;42.334;23.550;2022-08-19T02:34:58;7.13;;;5.55;;
66860;SDS011;53770;42.334;23.550;2022-08-19T02:37:25;7.30;;;5.22;;
66860;SDS011;53770;42.334;23.550;2022-08-19T02:40:09;8.23;;;5.33;;
66860;SDS011;53770;42.334;23.550;2022-08-19T02:42:37;8.30;;;5.57;;
66860;SDS011;53770;42.334;23.550;2022-08-19T02:45:07;7.25;;;4.97;;
66860;SDS011;53770;42.334;23.550;2022-08-19T02:47:34;7.82;;;5.30;;
66860;SDS011;53770;42.334;23.550;2022-08-19T02:50:02;7.97;;;5.10;;
66860;SDS011;53770;42.334;23.550;2022-08-19T02:52:29;8.20;;;5.27;;
66860;SDS011;53770;42.334;23.550;2022-08-19T02:54:57;9.88;;;5.78;;
66860;SDS011;53770;42.334;23.550;2022-08-19T02:57:24;8.65;;;5.60;;
66860;SDS011;53770;42.334;23.550;2022-08-19T02:59:51;9.48;;;5.57;;
66860;SDS011;53770;42.334;23.550;2022-08-19T03:02:19;8.82;;;5.40;;
66860;SDS011;53770;42.334;23.550;2022-08-19T03:04:46;10.47;;;5.47;;
66860;SDS011;53770;42.334;23.550;2022-08-19T03:07:13;8.38;;;5.30;;
66860;SDS011;53770;42.334;23.550;2022-08-19T03:09:40;8.07;;;5.97;;
66860;SDS011;53770;42.334;23.550;2022-08-19T03:12:07;8.23;;;5.55;;
66860;SDS011;53770;42.334;23.550;2022-08-19T03:14:34;8.02;;;5.50;;
66860;SDS011;53770;42.334;23.550;2022-08-19T03:17:02;7.87;;;5.40;;
66860;SDS011;53770;42.334;23.550;2022-08-19T03:19:31;6.75;;;5.00;;
66860;SDS011;53770;42.334;23.550;2022-08-19T03:21:58;8.85;;;5.88;;
66860;SDS011;53770;42.334;23.550;2022-08-19T03:24:25;9.82;;;5.80;;
66860;SDS011;53770;42.334;23.550;2022-08-19T03:26:52;8.35;;;5.00;;
66860;SDS011;53770;42.334;23.550;2022-08-19T03:29:22;7.67;;;5.13;;
66860;SDS011;53770;42.334;23.550;2022-08-19T03:31:50;7.28;;;5.25;;
66860;SDS011;53770;42.334;23.550;2022-08-19T03:34:19;9.45;;;5.38;;
66860;SDS011;53770;42.334;23.550;2022-08-19T03:36:52;7.43;;;5.18;;
66860;SDS011;53770;42.334;23.550;2022-08-19T03:39:20;10.20;;;5.85;;
66860;SDS011;53770;42.334;23.550;2022-08-19T03:41:48;7.60;;;5.10;;
66860;SDS011;53770;42.334;23.550;2022-08-19T03:44:18;9.23;;;5.65;;
66860;SDS011;53770;42.334;23.550;2022-08-19T03:46:46;8.52;;;5.40;;
66860;SDS011;53770;42.334;23.550;2022-08-19T03:49:14;7.95;;;5.18;;
66860;SDS011;53770;42.334;23.550;2022-08-19T03:51:42;7.68;;;5.50;;
66860;SDS011;53770;42.334;23.550;2022-08-19T03:54:11;8.43;;;5.70;;
66860;SDS011;53770;42.334;23.550;2022-08-19T03:56:40;9.35;;;5.50;;
66860;SDS011;53770;42.334;23.550;2022-08-19T03:59:10;6.75;;;4.90;;
66860;SDS011;53770;42.334;23.550;2022-08-19T04:01:39;9.15;;;5.57;;
66860;SDS011;53770;42.334;23.550;2022-08-19T04:04:06;9.38;;;5.68;;
66860;SDS011;53770;42.334;23.550;2022-08-19T04:06:34;7.30;;;5.10;;
66860;SDS011;53770;42.334;23.550;2022-08-19T04:09:04;8.10;;;5.32;;
66860;SDS011;53770;42.334;23.550;2022-08-19T04:11:35;8.65;;;5.40;;
66860;SDS011;53770;42.334;23.550;2022-08-19T04:14:06;7.75;;;5.30;;
66860;SDS011;53770;42.334;23.550;2022-08-19T04:16:33;9.80;;;5.75;;
66860;SDS011;53770;42.334;23.550;2022-08-19T04:19:02;8.10;;;5.20;;
66860;SDS011;53770;42.334;23.550;2022-08-19T04:21:30;9.80;;;5.93;;
66860;SDS011;53770;42.334;23.550;2022-08-19T04:23:57;8.40;;;5.10;;
66860;SDS011;53770;42.334;23.550;2022-08-19T04:26:25;9.65;;;5.25;;
66860;SDS011;53770;42.334;23.550;2022-08-19T04:28:55;7.65;;;5.40;;
66860;SDS011;53770;42.334;23.550;2022-08-19T04:31:23;8.43;;;5.60;;
66860;SDS011;53770;42.334;23.550;2022-08-19T04:33:51;7.80;;;5.20;;
66860;SDS011;53770;42.334;23.550;2022-08-19T04:36:19;7.70;;;5.57;;
66860;SDS011;53770;42.334;23.550;2022-08-19T04:38:47;7.55;;;5.45;;
66860;SDS011;53770;42.334;23.550;2022-08-19T04:41:14;8.77;;;5.47;;
66860;SDS011;53770;42.334;23.550;2022-08-19T04:44:00;7.93;;;5.33;;
66860;SDS011;53770;42.334;23.550;2022-08-19T04:46:28;10.18;;;5.25;;
66860;SDS011;53770;42.334;23.550;2022-08-19T04:48:57;7.75;;;5.38;;
66860;SDS011;53770;42.334;23.550;2022-08-19T04:51:24;9.68;;;4.95;;
66860;SDS011;53770;42.334;23.550;2022-08-19T04:53:51;10.18;;;5.30;;
66860;SDS011;53770;42.334;23.550;2022-08-19T04:56:19;8.17;;;5.50;;
66860;SDS011;53770;42.334;23.550;2022-08-19T04:58:48;9.48;;;5.70;;
66860;SDS011;53770;42.334;23.550;2022-08-19T05:01:19;9.07;;;5.30;;
66860;SDS011;53770;42.334;23.550;2022-08-19T05:03:47;7.85;;;5.53;;
66860;SDS011;53770;42.334;23.550;2022-08-19T05:06:14;8.90;;;5.35;;
66860;SDS011;53770;42.334;23.550;2022-08-19T05:08:43;9.33;;;5.80;;
66860;SDS011;53770;42.334;23.550;2022-08-19T05:11:11;10.40;;;5.45;;
66860;SDS011;53770;42.334;23.550;2022-08-19T05:13:39;9.20;;;5.22;;
66860;SDS011;53770;42.334;23.550;2022-08-19T05:16:07;9.10;;;5.60;;
66860;SDS011;53770;42.334;23.550;2022-08-19T05:18:35;6.80;;;5.18;;
66860;SDS011;53770;42.334;23.550;2022-08-19T05:21:20;8.50;;;5.73;;
66860;SDS011;53770;42.334;23.550;2022-08-19T05:24:05;7.85;;;5.32;;
66860;SDS011;53770;42.334;23.550;2022-08-19T05:26:34;8.65;;;5.55;;
66860;SDS011;53770;42.334;23.550;2022-08-19T05:29:01;10.88;;;5.40;;
66860;SDS011;53770;42.334;23.550;2022-08-19T05:31:28;9.77;;;5.45;;
66860;SDS011;53770;42.334;23.550;2022-08-19T05:33:57;7.50;;;4.87;;
66860;SDS011;53770;42.334;23.550;2022-08-19T05:36:24;7.45;;;5.38;;
66860;SDS011;53770;42.334;23.550;2022-08-19T05:38:51;8.38;;;5.05;;
66860;SDS011;53770;42.334;23.550;2022-08-19T05:41:19;7.78;;;5.00;;
66860;SDS011;53770;42.334;23.550;2022-08-19T05:43:48;7.93;;;5.30;;
66860;SDS011;53770;42.334;23.550;2022-08-19T05:46:16;7.47;;;5.20;;
66860;SDS011;53770;42.334;23.550;2022-08-19T05:48:44;8.30;;;5.20;;
66860;SDS011;53770;42.334;23.550;2022-08-19T05:51:12;8.40;;;5.20;;
66860;SDS011;53770;42.334;23.550;2022-08-19T05:53:39;10.10;;;5.40;;
66860;SDS011;53770;42.334;23.550;2022-08-19T05:56:07;8.93;;;5.30;;
66860;SDS011;53770;42.334;23.550;2022-08-19T05:58:34;7.93;;;5.13;;
66860;SDS011;53770;42.334;23.550;2022-08-19T06:01:03;6.90;;;4.95;;
66860;SDS011;53770;42.334;23.550;2022-08-19T06:03:31;6.75;;;5.28;;
66860;SDS011;53770;42.334;23.550;2022-08-19T06:05:59;7.72;;;5.20;;
66860;SDS011;53770;42.334;23.550;2022-08-19T06:08:29;6.78;;;5.00;;
66860;SDS011;53770;42.334;23.550;2022-08-19T06:10:56;8.60;;;5.37;;
66860;SDS011;53770;42.334;23.550;2022-08-19T06:13:23;9.82;;;5.00;;
66860;SDS011;53770;42.334;23.550;2022-08-19T06:15:50;7.35;;;4.78;;
66860;SDS011;53770;42.334;23.550;2022-08-19T06:18:17;9.48;;;5.18;;
66860;SDS011;53770;42.334;23.550;2022-08-19T06:20:44;8.13;;;5.05;;
66860;SDS011;53770;42.334;23.550;2022-08-19T06:23:11;14.00;;;5.50;;
66860;SDS011;53770;42.334;23.550;2022-08-19T06:25:40;10.02;;;6.47;;
66860;SDS011;53770;42.334;23.550;2022-08-19T06:28:06;9.23;;;5.38;;
66860;SDS011;53770;42.334;23.550;2022-08-19T06:30:33;8.85;;;5.20;;
66860;SDS011;53770;42.334;23.550;2022-08-19T06:33:00;9.48;;;5.95;;
66860;SDS011;53770;42.334;23.550;2022-08-19T06:35:27;9.07;;;5.40;;
66860;SDS011;53770;42.334;23.550;2022-08-19T06:37:55;9.32;;;5.43;;
66860;SDS011;53770;42.334;23.550;2022-08-19T06:40:22;10.85;;;6.00;;
66860;SDS011;53770;42.334;23.550;2022-08-19T06:42:50;8.57;;;6.03;;
66860;SDS011;53770;42.334;23.550;2022-08-19T06:45:17;6.57;;;4.80;;
66860;SDS011;53770;42.334;23.550;2022-08-19T06:47:45;8.53;;;4.93;;
66860;SDS011;53770;42.334;23.550;2022-08-19T06:50:13;7.85;;;5.72;;
66860;SDS011;53770;42.334;23.550;2022-08-19T06:52:40;7.68;;;5.57;;
66860;SDS011;53770;42.334;23.550;2022-08-19T06:55:07;8.82;;;5.72;;
66860;SDS011;53770;42.334;23.550;2022-08-19T06:57:34;9.43;;;5.68;;
66860;SDS011;53770;42.334;23.550;2022-08-19T07:00:04;7.13;;;5.27;;
66860;SDS011;53770;42.334;23.550;2022-08-19T07:02:32;8.77;;;5.25;;
66860;SDS011;53770;42.334;23.550;2022-08-19T07:05:02;7.93;;;5.90;;
66860;SDS011;53770;42.334;23.550;2022-08-19T07:07:30;9.65;;;6.25;;
66860;SDS011;53770;42.334;23.550;2022-08-19T07:09:58;7.97;;;5.40;;
66860;SDS011;53770;42.334;23.550;2022-08-19T07:12:25;11.57;;;5.77;;
66860;SDS011;53770;42.334;23.550;2022-08-19T07:14:53;15.55;;;5.93;;
66860;SDS011;53770;42.334;23.550;2022-08-19T07:17:21;8.07;;;5.00;;
66860;SDS011;53770;42.334;23.550;2022-08-19T07:19:48;9.05;;;4.50;;
66860;SDS011;53770;42.334;23.550;2022-08-19T07:22:15;8.57;;;4.43;;
66860;SDS011;53770;42.334;23.550;2022-08-19T07:24:43;8.07;;;5.00;;
66860;SDS011;53770;42.334;23.550;2022-08-19T07:27:10;10.32;;;4.75;;
66860;SDS011;53770;42.334;23.550;2022-08-19T07:29:36;6.85;;;4.28;;
66860;SDS011;53770;42.334;23.550;2022-08-19T07:32:04;6.30;;;3.60;;
66860;SDS011;53770;42.334;23.550;2022-08-19T07:34:32;6.53;;;3.67;;
66860;SDS011;53770;42.334;23.550;2022-08-19T07:37:03;6.10;;;3.50;;
66860;SDS011;53770;42.334;23.550;2022-08-19T07:39:31;5.60;;;3.63;;
66860;SDS011;53770;42.334;23.550;2022-08-19T07:41:59;7.82;;;3.60;;
66860;SDS011;53770;42.334;23.550;2022-08-19T07:44:28;7.30;;;4.22;;
66860;SDS011;53770;42.334;23.550;2022-08-19T07:46:56;9.43;;;4.53;;
66860;SDS011;53770;42.334;23.550;2022-08-19T07:49:25;7.33;;;4.30;;
66860;SDS011;53770;42.334;23.550;2022-08-19T07:51:54;8.85;;;4.32;;
66860;SDS011;53770;42.334;23.550;2022-08-19T07:54:24;8.10;;;4.43;;
66860;SDS011;53770;42.334;23.550;2022-08-19T07:56:53;7.00;;;4.63;;
66860;SDS011;53770;42.334;23.550;2022-08-19T07:59:20;5.97;;;4.55;;
66860;SDS011;53770;42.334;23.550;2022-08-19T08:01:47;9.30;;;4.27;;
66860;SDS011;53770;42.334;23.550;2022-08-19T08:04:15;4.93;;;3.80;;
66860;SDS011;53770;42.334;23.550;2022-08-19T08:07:01;5.65;;;4.10;;
66860;SDS011;53770;42.334;23.550;2022-08-19T08:09:46;5.55;;;3.83;;
66860;SDS011;53770;42.334;23.550;2022-08-19T08:12:14;6.90;;;4.38;;
66860;SDS011;53770;42.334;23.550;2022-08-19T08:14:43;7.60;;;3.83;;
66860;SDS011;53770;42.334;23.550;2022-08-19T08:17:12;5.45;;;3.88;;
66860;SDS011;53770;42.334;23.550;2022-08-19T08:19:40;7.43;;;3.60;;
66860;SDS011;53770;42.334;23.550;2022-08-19T08:22:10;6.38;;;4.18;;
66860;SDS011;53770;42.334;23.550;2022-08-19T08:25:00;6.13;;;3.80;;
66860;SDS011;53770;42.334;23.550;2022-08-19T08:27:29;5.00;;;3.33;;
66860;SDS011;53770;42.334;23.550;2022-08-19T08:29:56;4.35;;;3.35;;
66860;SDS011;53770;42.334;23.550;2022-08-19T08:32:23;7.07;;;3.92;;
66860;SDS011;53770;42.334;23.550;2022-08-19T08:34:50;5.97;;;4.05;;
66860;SDS011;53770;42.334;23.550;2022-08-19T08:37:18;6.97;;;4.10;;
66860;SDS011;53770;42.334;23.550;2022-08-19T08:39:44;6.03;;;3.77;;
66860;SDS011;53770;42.334;23.550;2022-08-19T08:42:17;5.85;;;3.55;;
66860;SDS011;53770;42.334;23.550;2022-08-19T08:44:49;8.18;;;3.30;;
66860;SDS011;53770;42.334;23.550;2022-08-19T08:47:21;5.60;;;3.67;;
66860;SDS011;53770;42.334;23.550;2022-08-19T08:49:51;5.40;;;4.03;;
66860;SDS011;53770;42.334;23.550;2022-08-19T08:52:26;7.10;;;4.00;;
66860;SDS011;53770;42.334;23.550;2022-08-19T08:54:57;6.90;;;4.20;;
66860;SDS011;53770;42.334;23.550;2022-08-19T08:57:28;5.88;;;4.13;;
66860;SDS011;53770;42.334;23.550;2022-08-19T09:00:06;7.60;;;4.05;;
66860;SDS011;53770;42.334;23.550;2022-08-19T09:02:36;6.55;;;4.30;;
66860;SDS011;53770;42.334;23.550;2022-08-19T09:05:04;6.43;;;4.00;;
66860;SDS011;53770;42.334;23.550;2022-08-19T09:07:39;7.07;;;4.25;;
66860;SDS011;53770;42.334;23.550;2022-08-19T09:10:15;6.35;;;4.00;;
66860;SDS011;53770;42.334;23.550;2022-08-19T09:12:50;5.20;;;3.92;;
66860;SDS011;53770;42.334;23.550;2022-08-19T09:15:27;6.45;;;4.32;;
66860;SDS011;53770;42.334;23.550;2022-08-19T09:17:59;5.80;;;3.90;;
66860;SDS011;53770;42.334;23.550;2022-08-19T09:20:28;5.47;;;4.20;;
66860;SDS011;53770;42.334;23.550;2022-08-19T09:22:57;6.30;;;4.15;;
66860;SDS011;53770;42.334;23.550;2022-08-19T09:25:25;8.30;;;4.93;;
66860;SDS011;53770;42.334;23.550;2022-08-19T09:27:52;5.45;;;4.30;;
66860;SDS011;53770;42.334;23.550;2022-08-19T09:30:22;6.73;;;4.57;;
66860;SDS011;53770;42.334;23.550;2022-08-19T09:32:51;8.60;;;5.72;;
66860;SDS011;53770;42.334;23.550;2022-08-19T09:35:19;5.38;;;4.53;;
66860;SDS011;53770;42.334;23.550;2022-08-19T09:37:47;6.35;;;5.40;;
66860;SDS011;53770;42.334;23.550;2022-08-19T09:40:17;7.88;;;5.53;;
66860;SDS011;53770;42.334;23.550;2022-08-19T09:42:45;7.63;;;5.30;;
66860;SDS011;53770;42.334;23.550;2022-08-19T09:45:13;7.25;;;5.25;;
66860;SDS011;53770;42.334;23.550;2022-08-19T09:47:40;5.95;;;5.10;;
66860;SDS011;53770;42.334;23.550;2022-08-19T09:50:08;6.30;;;5.35;;
66860;SDS011;53770;42.334;23.550;2022-08-19T09:52:36;7.63;;;6.18;;
66860;SDS011;53770;42.334;23.550;2022-08-19T09:55:04;7.27;;;5.90;;
66860;SDS011;53770;42.334;23.550;2022-08-19T09:57:32;6.95;;;6.25;;
66860;SDS011;53770;42.334;23.550;2022-08-19T09:59:59;6.75;;;6.07;;
66860;SDS011;53770;42.334;23.550;2022-08-19T10:02:26;7.88;;;6.43;;
66860;SDS011;53770;42.334;23.550;2022-08-19T10:04:53;8.20;;;7.30;;
66860;SDS011;53770;42.334;23.550;2022-08-19T10:07:38;7.93;;;6.63;;
66860;SDS011;53770;42.334;23.550;2022-08-19T10:10:05;7.18;;;6.60;;
66860;SDS011;53770;42.334;23.550;2022-08-19T10:12:35;9.57;;;7.60;;
66860;SDS011;53770;42.334;23.550;2022-08-19T10:15:03;9.25;;;8.35;;
66860;SDS011;53770;42.334;23.550;2022-08-19T10:17:33;9.00;;;8.20;;
66860;SDS011;53770;42.334;23.550;2022-08-19T10:20:00;8.85;;;8.23;;
66860;SDS011;53770;42.334;23.550;2022-08-19T10:22:27;10.35;;;9.48;;
66860;SDS011;53770;42.334;23.550;2022-08-19T10:24:54;11.52;;;10.38;;
66860;SDS011;53770;42.334;23.550;2022-08-19T10:27:21;11.10;;;10.30;;
66860;SDS011;53770;42.334;23.550;2022-08-19T10:29:50;12.38;;;11.45;;
66860;SDS011;53770;42.334;23.550;2022-08-19T10:32:16;12.00;;;11.10;;
66860;SDS011;53770;42.334;23.550;2022-08-19T10:34:43;14.25;;;13.00;;
66860;SDS011;53770;42.334;23.550;2022-08-19T10:37:10;14.98;;;13.90;;
66860;SDS011;53770;42.334;23.550;2022-08-19T10:39:37;14.80;;;13.63;;
66860;SDS011;53770;42.334;23.550;2022-08-19T10:42:04;15.85;;;14.63;;
66860;SDS011;53770;42.334;23.550;2022-08-19T10:44:32;16.08;;;14.98;;
66860;SDS011;53770;42.334;23.550;2022-08-19T10:47:01;16.02;;;15.00;;
66860;SDS011;53770;42.334;23.550;2022-08-19T10:49:29;17.42;;;16.10;;
66860;SDS011;53770;42.334;23.550;2022-08-19T10:51:57;18.35;;;16.95;;
66860;SDS011;53770;42.334;23.550;2022-08-19T10:54:56;18.00;;;16.70;;
66860;SDS011;53770;42.334;23.550;2022-08-19T10:57:40;17.35;;;16.00;;
66860;SDS011;53770;42.334;23.550;2022-08-19T11:00:07;18.52;;;17.33;;
66860;SDS011;53770;42.334;23.550;2022-08-19T11:02:36;19.33;;;18.00;;
66860;SDS011;53770;42.334;23.550;2022-08-19T11:05:03;21.55;;;19.77;;
66860;SDS011;53770;42.334;23.550;2022-08-19T11:07:31;19.73;;;18.23;;
66860;SDS011;53770;42.334;23.550;2022-08-19T11:09:58;21.98;;;20.67;;
66860;SDS011;53770;42.334;23.550;2022-08-19T11:12:25;22.38;;;20.77;;
66860;SDS011;53770;42.334;23.550;2022-08-19T11:14:52;22.83;;;21.42;;
66860;SDS011;53770;42.334;23.550;2022-08-19T11:17:19;20.13;;;18.73;;
66860;SDS011;53770;42.334;23.550;2022-08-19T11:19:49;24.00;;;22.40;;
66860;SDS011;53770;42.334;23.550;2022-08-19T11:22:16;25.35;;;23.63;;
66860;SDS011;53770;42.334;23.550;2022-08-19T11:24:43;24.55;;;22.75;;
66860;SDS011;53770;42.334;23.550;2022-08-19T11:27:10;23.90;;;22.38;;
66860;SDS011;53770;42.334;23.550;2022-08-19T11:29:37;27.20;;;25.42;;
66860;SDS011;53770;42.334;23.550;2022-08-19T11:32:05;30.70;;;28.60;;
66860;SDS011;53770;42.334;23.550;2022-08-19T11:34:33;29.52;;;27.52;;
66860;SDS011;53770;42.334;23.550;2022-08-19T11:37:02;30.23;;;28.27;;
66860;SDS011;53770;42.334;23.550;2022-08-19T11:39:31;29.60;;;27.67;;
66860;SDS011;53770;42.334;23.550;2022-08-19T11:41:59;30.13;;;28.17;;
66860;SDS011;53770;42.334;23.550;2022-08-19T11:44:27;31.33;;;29.30;;
66860;SDS011;53770;42.334;23.550;2022-08-19T11:46:55;34.92;;;32.78;;
66860;SDS011;53770;42.334;23.550;2022-08-19T11:49:22;35.30;;;33.05;;
66860;SDS011;53770;42.334;23.550;2022-08-19T11:51:49;35.20;;;32.88;;
66860;SDS011;53770;42.334;23.550;2022-08-19T11:54:17;34.92;;;32.42;;
66860;SDS011;53770;42.334;23.550;2022-08-19T11:56:44;35.80;;;33.60;;
66860;SDS011;53770;42.334;23.550;2022-08-19T11:59:12;33.33;;;31.27;;
66860;SDS011;53770;42.334;23.550;2022-08-19T12:01:39;36.30;;;33.90;;
66860;SDS011;53770;42.334;23.550;2022-08-19T12:04:07;37.97;;;35.67;;
66860;SDS011;53770;42.334;23.550;2022-08-19T12:06:37;37.47;;;35.28;;
66860;SDS011;53770;42.334;23.550;2022-08-19T12:09:05;39.37;;;36.90;;
66860;SDS011;53770;42.334;23.550;2022-08-19T12:11:35;37.95;;;35.65;;
66860;SDS011;53770;42.334;23.550;2022-08-19T12:14:03;39.33;;;36.83;;
66860;SDS011;53770;42.334;23.550;2022-08-19T12:16:30;38.17;;;35.90;;
66860;SDS011;53770;42.334;23.550;2022-08-19T12:18:58;36.20;;;33.90;;
66860;SDS011;53770;42.334;23.550;2022-08-19T12:21:28;33.40;;;31.17;;
66860;SDS011;53770;42.334;23.550;2022-08-19T12:23:57;34.97;;;32.88;;
66860;SDS011;53770;42.334;23.550;2022-08-19T12:26:25;36.35;;;34.08;;
66860;SDS011;53770;42.334;23.550;2022-08-19T12:28:54;38.67;;;36.33;;
66860;SDS011;53770;42.334;23.550;2022-08-19T12:31:23;34.38;;;32.28;;
66860;SDS011;53770;42.334;23.550;2022-08-19T12:33:50;37.33;;;34.93;;
66860;SDS011;53770;42.334;23.550;2022-08-19T12:36:17;36.65;;;34.22;;
66860;SDS011;53770;42.334;23.550;2022-08-19T12:38:44;39.70;;;37.30;;
66860;SDS011;53770;42.334;23.550;2022-08-19T12:41:12;35.95;;;33.28;;
66860;SDS011;53770;42.334;23.550;2022-08-19T12:43:42;35.70;;;33.45;;
66860;SDS011;53770;42.334;23.550;2022-08-19T12:46:11;36.23;;;33.83;;
66860;SDS011;53770;42.334;23.550;2022-08-19T12:48:39;38.00;;;35.70;;
66860;SDS011;53770;42.334;23.550;2022-08-19T12:51:08;37.38;;;34.90;;
66860;SDS011;53770;42.334;23.550;2022-08-19T12:53:37;38.88;;;36.35;;
66860;SDS011;53770;42.334;23.550;2022-08-19T12:56:04;36.60;;;34.10;;
66860;SDS011;53770;42.334;23.550;2022-08-19T12:58:31;38.00;;;35.70;;
66860;SDS011;53770;42.334;23.550;2022-08-19T13:00:59;38.70;;;36.42;;
66860;SDS011;53770;42.334;23.550;2022-08-19T13:03:27;39.05;;;36.45;;
66860;SDS011;53770;42.334;23.550;2022-08-19T13:05:54;36.70;;;34.50;;
66860;SDS011;53770;42.334;23.550;2022-08-19T13:08:21;35.42;;;33.35;;
66860;SDS011;53770;42.334;23.550;2022-08-19T13:10:48;36.77;;;34.53;;
66860;SDS011;53770;42.334;23.550;2022-08-19T13:13:15;32.55;;;30.42;;
66860;SDS011;53770;42.334;23.550;2022-08-19T13:15:42;34.17;;;31.88;;
66860;SDS011;53770;42.334;23.550;2022-08-19T13:18:10;35.10;;;33.05;;
66860;SDS011;53770;42.334;23.550;2022-08-19T13:20:39;35.75;;;33.25;;
66860;SDS011;53770;42.334;23.550;2022-08-19T13:23:07;32.27;;;30.27;;
66860;SDS011;53770;42.334;23.550;2022-08-19T13:25:34;31.85;;;29.95;;
66860;SDS011;53770;42.334;23.550;2022-08-19T13:28:01;31.95;;;29.85;;
66860;SDS011;53770;42.334;23.550;2022-08-19T13:30:28;31.00;;;28.92;;
66860;SDS011;53770;42.334;23.550;2022-08-19T13:33:12;33.08;;;30.88;;
66860;SDS011;53770;42.334;23.550;2022-08-19T13:35:42;32.77;;;30.77;;
66860;SDS011;53770;42.334;23.550;2022-08-19T13:38:11;28.83;;;26.92;;
66860;SDS011;53770;42.334;23.550;2022-08-19T13:40:39;31.38;;;29.33;;
66860;SDS011;53770;42.334;23.550;2022-08-19T13:43:06;32.08;;;30.08;;
66860;SDS011;53770;42.334;23.550;2022-08-19T13:45:34;32.00;;;30.08;;
66860;SDS011;53770;42.334;23.550;2022-08-19T13:48:02;30.17;;;28.33;;
66860;SDS011;53770;42.334;23.550;2022-08-19T13:50:34;32.92;;;30.67;;
66860;SDS011;53770;42.334;23.550;2022-08-19T13:53:07;28.73;;;26.85;;
66860;SDS011;53770;42.334;23.550;2022-08-19T13:55:34;27.05;;;25.15;;
66860;SDS011;53770;42.334;23.550;2022-08-19T13:58:01;29.70;;;27.70;;
66860;SDS011;53770;42.334;23.550;2022-08-19T14:00:29;28.30;;;26.30;;
66860;SDS011;53770;42.334;23.550;2022-08-19T14:02:57;25.67;;;23.95;;
66860;SDS011;53770;42.334;23.550;2022-08-19T14:05:24;26.63;;;24.73;;
66860;SDS011;53770;42.334;23.550;2022-08-19T14:07:52;22.80;;;20.85;;
66860;SDS011;53770;42.334;23.550;2022-08-19T14:10:20;24.63;;;22.95;;
66860;SDS011;53770;42.334;23.550;2022-08-19T14:12:48;23.43;;;21.77;;
66860;SDS011;53770;42.334;23.550;2022-08-19T14:15:15;22.33;;;20.60;;
66860;SDS011;53770;42.334;23.550;2022-08-19T14:17:43;21.85;;;20.05;;
66860;SDS011;53770;42.334;23.550;2022-08-19T14:20:12;20.58;;;18.92;;
66860;SDS011;53770;42.334;23.550;2022-08-19T14:22:40;22.48;;;20.70;;
66860;SDS011;53770;42.334;23.550;2022-08-19T14:25:09;20.83;;;19.23;;
66860;SDS011;53770;42.334;23.550;2022-08-19T14:27:39;20.95;;;19.35;;
66860;SDS011;53770;42.334;23.550;2022-08-19T14:30:07;20.27;;;18.77;;
66860;SDS011;53770;42.334;23.550;2022-08-19T14:32:35;18.92;;;17.60;;
66860;SDS011;53770;42.334;23.550;2022-08-19T14:35:03;18.23;;;16.33;;